Time;durP1;ratioP1;P1;durP2;ratioP2;P2;SDS_P1;SDS_P2;PMS_P1;PMS_P2;Temp;Humidity;BMP_temperature;BMP_pressure;BME280_temperature;BME280_humidity;BME280_pressure;Samples;Min_cycle;Max_cycle;Signal;HPM_P1;HPM_P2
2024/01/18 00:00:14;;;;;;;6.20;0.80;;;9.50;99.90;;;;;;4977324;28;20463;-69
2024/01/18 00:02:42;;;;;;;7.97;0.90;;;9.50;99.90;;;;;;4967414;28;20459;-69
2024/01/18 00:05:10;;;;;;;6.60;0.80;;;9.40;99.90;;;;;;4968126;28;20502;-69
2024/01/18 00:07:38;;;;;;;6.93;0.70;;;9.50;99.90;;;;;;4967781;28;20492;-68
2024/01/18 00:10:07;;;;;;;7.40;1.00;;;9.50;99.90;;;;;;4979313;28;20474;-69
2024/01/18 00:12:37;;;;;;;7.33;0.90;;;9.50;99.90;;;;;;4962596;28;20959;-68
2024/01/18 00:15:05;;;;;;;6.07;0.80;;;9.40;99.90;;;;;;4969020;28;20478;-68
2024/01/18 00:17:33;;;;;;;7.10;1.30;;;9.30;99.90;;;;;;4968882;28;20454;-68
2024/01/18 00:20:02;;;;;;;6.53;1.20;;;9.40;99.90;;;;;;4984679;28;20454;-68
2024/01/18 00:22:30;;;;;;;6.40;0.90;;;9.30;99.90;;;;;;4969419;28;20461;-68
2024/01/18 00:24:58;;;;;;;6.90;1.00;;;9.40;99.90;;;;;;4974323;28;20470;-68
2024/01/18 00:27:27;;;;;;;8.60;1.50;;;9.40;99.90;;;;;;4974697;28;20468;-69
2024/01/18 00:29:56;;;;;;;7.03;1.13;;;9.30;99.90;;;;;;4971024;28;20479;-69
2024/01/18 00:32:24;;;;;;;6.20;0.80;;;9.20;99.90;;;;;;4971279;28;20456;-69
2024/01/18 00:34:52;;;;;;;6.87;0.97;;;9.20;99.90;;;;;;4968883;28;20982;-69
2024/01/18 00:37:20;;;;;;;6.60;0.93;;;9.20;99.90;;;;;;4978848;28;20485;-69
2024/01/18 00:39:48;;;;;;;6.80;1.20;;;9.10;99.90;;;;;;4983142;28;20477;-69
2024/01/18 00:42:16;;;;;;;6.30;0.90;;;9.10;99.90;;;;;;4978987;28;20518;-69
2024/01/18 00:44:44;;;;;;;8.17;1.07;;;9.00;99.90;;;;;;4972527;28;21095;-68
2024/01/18 00:47:13;;;;;;;6.80;1.00;;;8.90;99.90;;;;;;4978556;28;20443;-69
2024/01/18 00:49:43;;;;;;;6.50;1.10;;;8.80;99.90;;;;;;4991381;28;20534;-68
2024/01/18 00:52:11;;;;;;;6.63;0.90;;;8.90;99.90;;;;;;4976425;28;20457;-68
2024/01/18 00:54:39;;;;;;;7.03;1.07;;;8.80;99.90;;;;;;4967481;28;20448;-68
2024/01/18 00:57:07;;;;;;;6.30;0.70;;;8.80;99.90;;;;;;4965125;28;20501;-68
2024/01/18 00:59:35;;;;;;;8.03;0.97;;;8.80;99.90;;;;;;4969001;28;20441;-69
2024/01/18 01:02:05;;;;;;;6.20;0.70;;;8.80;99.90;;;;;;4966317;28;20453;-69
2024/01/18 01:04:35;;;;;;;7.00;1.10;;;8.90;99.90;;;;;;4965470;28;20814;-69
2024/01/18 01:07:03;;;;;;;6.50;1.10;;;8.90;99.90;;;;;;4971965;28;20473;-68
2024/01/18 01:09:31;;;;;;;6.20;0.80;;;9.00;99.90;;;;;;4982722;28;20566;-68
2024/01/18 01:11:59;;;;;;;6.83;1.03;;;9.10;99.90;;;;;;4972205;28;21146;-69
2024/01/18 01:14:27;;;;;;;6.50;0.80;;;9.10;99.90;;;;;;4973383;28;20466;-69
2024/01/18 01:16:55;;;;;;;7.20;1.10;;;9.10;99.90;;;;;;4980574;28;20478;-68
2024/01/18 01:19:23;;;;;;;8.10;0.87;;;9.00;99.90;;;;;;4970594;28;20541;-68
2024/01/18 01:21:52;;;;;;;7.10;0.80;;;8.90;99.90;;;;;;4970171;28;20473;-69
2024/01/18 01:24:20;;;;;;;6.10;0.70;;;8.80;99.90;;;;;;4970405;28;20456;-68
2024/01/18 01:26:48;;;;;;;6.23;0.70;;;8.80;99.90;;;;;;4970268;28;20476;-68
2024/01/18 01:29:16;;;;;;;6.27;0.70;;;8.70;99.90;;;;;;4970259;28;20603;-68
2024/01/18 01:31:44;;;;;;;6.20;0.80;;;8.70;99.90;;;;;;4969828;28;20459;-67
2024/01/18 01:34:12;;;;;;;6.23;0.70;;;8.70;99.90;;;;;;4970536;28;20457;-69
2024/01/18 01:36:40;;;;;;;7.30;0.90;;;8.60;99.90;;;;;;4970090;28;20990;-69
2024/01/18 01:39:10;;;;;;;7.40;1.00;;;8.50;99.90;;;;;;4970290;28;20444;-69
2024/01/18 01:41:38;;;;;;;7.03;0.83;;;8.40;99.90;;;;;;4970145;28;20581;-68
2024/01/18 01:44:06;;;;;;;6.23;0.87;;;8.30;99.90;;;;;;4969904;28;20448;-69
2024/01/18 01:46:34;;;;;;;6.90;0.77;;;8.20;99.90;;;;;;4969576;28;20474;-69
2024/01/18 01:49:04;;;;;;;7.07;1.00;;;8.20;99.90;;;;;;4969905;28;20479;-69
2024/01/18 01:51:37;;;;;;;6.50;0.63;;;8.30;99.90;;;;;;4970001;28;20509;-69
2024/01/18 01:54:05;;;;;;;6.20;0.70;;;8.30;99.90;;;;;;4970164;28;20446;-68
2024/01/18 01:56:37;;;;;;;6.70;0.67;;;8.40;99.90;;;;;;4969646;28;20841;-69
2024/01/18 01:59:10;;;;;;;6.40;0.80;;;8.50;99.90;;;;;;4970015;28;20830;-69
2024/01/18 02:01:40;;;;;;;6.83;0.60;;;8.60;99.90;;;;;;4969495;28;20486;-68
2024/01/18 02:04:08;;;;;;;7.73;1.20;;;8.70;99.90;;;;;;4969535;28;20452;-68
2024/01/18 02:06:38;;;;;;;6.40;0.73;;;8.70;99.90;;;;;;4969701;28;20473;-69
2024/01/18 02:09:07;;;;;;;6.97;0.80;;;8.70;99.90;;;;;;4969513;28;20595;-68
2024/01/18 02:11:36;;;;;;;6.40;0.70;;;8.70;99.90;;;;;;4969349;28;20561;-68
2024/01/18 02:14:04;;;;;;;6.60;0.80;;;8.70;99.90;;;;;;4969148;28;20470;-69
2024/01/18 02:16:33;;;;;;;6.30;0.90;;;8.80;99.90;;;;;;4969202;28;20481;-68
2024/01/18 02:19:02;;;;;;;6.30;0.80;;;8.80;99.90;;;;;;4969608;28;20468;-68
2024/01/18 02:21:30;;;;;;;6.43;0.80;;;8.90;99.90;;;;;;4969327;28;20464;-68
2024/01/18 02:24:03;;;;;;;6.23;1.20;;;8.90;99.90;;;;;;4969184;28;20460;-68
2024/01/18 02:26:32;;;;;;;6.47;0.90;;;9.00;99.90;;;;;;4968995;28;20470;-68
2024/01/18 02:29:00;;;;;;;7.10;0.80;;;8.90;99.90;;;;;;4969300;28;20454;-68
2024/01/18 02:31:28;;;;;;;6.00;0.70;;;9.00;99.90;;;;;;4968549;28;20986;-69
2024/01/18 02:33:56;;;;;;;7.83;0.77;;;9.10;99.90;;;;;;4969091;28;20457;-68
2024/01/18 02:36:24;;;;;;;6.33;0.83;;;9.20;99.90;;;;;;4968863;28;20470;-67
2024/01/18 02:38:52;;;;;;;6.80;0.83;;;9.30;99.90;;;;;;4968813;28;20891;-68
2024/01/18 02:41:21;;;;;;;7.33;0.97;;;9.40;99.90;;;;;;4968445;28;20457;-68
2024/01/18 02:43:50;;;;;;;6.57;0.90;;;9.40;99.90;;;;;;4968508;28;20471;-68
2024/01/18 02:46:18;;;;;;;6.70;0.60;;;9.30;99.90;;;;;;4969213;28;20893;-68
2024/01/18 02:48:46;;;;;;;6.20;0.67;;;9.40;99.90;;;;;;4968358;28;21023;-69
2024/01/18 02:51:15;;;;;;;7.20;0.90;;;9.40;99.90;;;;;;4967902;28;20569;-69
2024/01/18 02:53:44;;;;;;;6.40;0.80;;;9.30;99.90;;;;;;4968228;28;21439;-68
2024/01/18 02:56:12;;;;;;;7.80;0.83;;;9.20;99.90;;;;;;4968556;28;20549;-69
2024/01/18 02:58:39;;;;;;;6.77;0.83;;;9.00;99.90;;;;;;4967039;28;20459;-68
2024/01/18 03:01:09;;;;;;;6.63;0.90;;;8.80;99.90;;;;;;4967689;28;20461;-68
2024/01/18 03:03:37;;;;;;;6.93;1.17;;;8.70;99.90;;;;;;4967871;28;20462;-68
2024/01/18 03:06:05;;;;;;;7.50;1.20;;;8.50;99.90;;;;;;4967951;28;20528;-68
2024/01/18 03:08:34;;;;;;;8.93;2.10;;;8.40;99.90;;;;;;4967850;28;20886;-68
2024/01/18 03:11:02;;;;;;;10.60;4.03;;;8.20;99.90;;;;;;4967612;28;20500;-68
2024/01/18 03:13:31;;;;;;;11.23;5.40;;;8.10;99.90;;;;;;4967825;28;20479;-68
2024/01/18 03:15:59;;;;;;;10.83;5.23;;;7.90;99.90;;;;;;4968123;28;20472;-68
2024/01/18 03:18:29;;;;;;;11.80;5.90;;;7.80;99.90;;;;;;4968918;28;20459;-68
2024/01/18 03:20:57;;;;;;;13.53;7.60;;;7.60;99.90;;;;;;4968570;28;20526;-68
2024/01/18 03:23:25;;;;;;;14.27;7.83;;;7.40;99.90;;;;;;4969334;28;20502;-68
2024/01/18 03:25:52;;;;;;;15.40;7.90;;;7.20;99.90;;;;;;4968856;28;20468;-68
2024/01/18 03:28:20;;;;;;;16.60;8.97;;;7.10;99.90;;;;;;4969126;28;20453;-68
2024/01/18 03:30:48;;;;;;;13.47;7.00;;;7.00;99.90;;;;;;4968180;28;20490;-69
2024/01/18 03:33:16;;;;;;;13.77;7.70;;;6.90;99.90;;;;;;4968199;28;20452;-68
2024/01/18 03:35:46;;;;;;;14.07;8.57;;;6.80;99.90;;;;;;4968551;28;21019;-69
2024/01/18 03:38:14;;;;;;;16.33;8.90;;;6.80;99.90;;;;;;4968865;28;20617;-69
2024/01/18 03:40:42;;;;;;;15.03;8.43;;;6.80;99.90;;;;;;4968292;28;20467;-69
2024/01/18 03:43:10;;;;;;;14.60;8.43;;;6.90;99.90;;;;;;4968624;28;20510;-68
2024/01/18 03:45:38;;;;;;;12.87;7.30;;;6.80;99.90;;;;;;4968386;28;20845;-68
2024/01/18 03:48:06;;;;;;;13.10;7.13;;;6.90;99.90;;;;;;4963438;28;20980;-68
2024/01/18 03:50:34;;;;;;;11.70;6.47;;;6.80;99.90;;;;;;4968365;28;20562;-69
2024/01/18 03:53:04;;;;;;;11.57;6.37;;;6.80;99.90;;;;;;4968757;28;20458;-68
2024/01/18 03:55:32;;;;;;;14.83;7.47;;;6.70;99.90;;;;;;4968310;28;20566;-68
2024/01/18 03:58:00;;;;;;;14.90;7.07;;;6.60;99.90;;;;;;4968563;28;20510;-68
2024/01/18 04:00:27;;;;;;;11.80;6.30;;;6.60;99.90;;;;;;4968182;28;20501;-68
2024/01/18 04:02:55;;;;;;;11.60;6.37;;;6.50;99.90;;;;;;4968742;28;20459;-68
2024/01/18 04:05:23;;;;;;;13.37;7.50;;;6.40;99.90;;;;;;4968715;28;20487;-69
2024/01/18 04:07:52;;;;;;;12.20;7.13;;;6.40;99.90;;;;;;4968424;28;20946;-68
2024/01/18 04:10:21;;;;;;;13.60;7.40;;;6.30;99.90;;;;;;4970869;28;20478;-68
2024/01/18 04:12:49;;;;;;;12.50;7.37;;;6.30;99.90;;;;;;4971643;28;20953;-68
2024/01/18 04:15:17;;;;;;;13.40;7.33;;;6.20;99.90;;;;;;4972313;28;20534;-68
2024/01/18 04:17:45;;;;;;;14.60;7.40;;;6.20;99.90;;;;;;4972168;28;20448;-68
2024/01/18 04:20:17;;;;;;;12.30;6.60;;;6.10;99.90;;;;;;4971688;28;20967;-68
2024/01/18 04:22:45;;;;;;;13.03;6.63;;;6.10;99.90;;;;;;4972220;28;20537;-69
2024/01/18 04:25:13;;;;;;;12.57;6.80;;;6.00;99.90;;;;;;4972115;28;20482;-69
2024/01/18 04:27:42;;;;;;;12.37;6.60;;;5.90;99.90;;;;;;4971868;28;20549;-69
2024/01/18 04:30:11;;;;;;;11.67;6.30;;;5.90;99.90;;;;;;4971628;28;20847;-68
2024/01/18 04:32:40;;;;;;;11.83;6.93;;;5.80;99.90;;;;;;4972014;28;20485;-68
2024/01/18 04:35:08;;;;;;;11.43;5.33;;;5.80;99.90;;;;;;4971990;28;20865;-68
2024/01/18 04:37:36;;;;;;;11.60;6.20;;;5.80;99.90;;;;;;4971890;28;20460;-69
2024/01/18 04:40:05;;;;;;;11.93;6.37;;;5.70;99.90;;;;;;4971120;28;20459;-69
2024/01/18 04:42:33;;;;;;;10.83;5.77;;;5.60;99.90;;;;;;4971343;28;20503;-68
2024/01/18 04:45:06;;;;;;;11.67;6.00;;;5.40;99.90;;;;;;4971834;28;20479;-69
2024/01/18 04:47:34;;;;;;;12.47;6.57;;;5.30;99.90;;;;;;4971919;28;20451;-68
2024/01/18 04:50:03;;;;;;;12.53;6.37;;;5.20;99.90;;;;;;4970905;28;20458;-69
2024/01/18 04:52:32;;;;;;;10.50;5.60;;;5.20;99.90;;;;;;4971649;28;20544;-69
2024/01/18 04:55:04;;;;;;;10.13;5.37;;;5.30;99.90;;;;;;4971388;28;20543;-68
2024/01/18 04:57:32;;;;;;;10.83;5.63;;;5.20;99.90;;;;;;4971578;28;20993;-69
2024/01/18 05:00:01;;;;;;;13.37;5.33;;;5.20;99.90;;;;;;4971238;28;20478;-69
2024/01/18 05:02:31;;;;;;;11.20;6.10;;;5.10;99.90;;;;;;4971549;28;20457;-69
2024/01/18 05:04:59;;;;;;;12.87;6.20;;;5.10;99.90;;;;;;4971300;28;20967;-69
2024/01/18 05:07:28;;;;;;;11.23;5.90;;;5.10;99.90;;;;;;4971279;28;20452;-68
2024/01/18 05:09:57;;;;;;;12.03;5.97;;;5.10;99.90;;;;;;4971132;28;20927;-68
2024/01/18 05:12:25;;;;;;;13.20;6.40;;;5.10;99.90;;;;;;4971128;28;20484;-68
2024/01/18 05:14:53;;;;;;;11.20;5.43;;;5.00;99.90;;;;;;4970893;28;20546;-68
2024/01/18 05:17:21;;;;;;;13.83;6.73;;;5.00;99.90;;;;;;4971087;28;20478;-68
2024/01/18 05:19:51;;;;;;;10.70;5.30;;;4.90;99.90;;;;;;4970681;28;20457;-69
2024/01/18 05:22:19;;;;;;;13.53;6.67;;;4.90;99.90;;;;;;4970069;28;21030;-68
2024/01/18 05:24:47;;;;;;;11.40;5.67;;;4.90;99.90;;;;;;4970934;28;20463;-68
2024/01/18 05:27:15;;;;;;;11.47;5.97;;;4.80;99.90;;;;;;4970990;28;20503;-68
2024/01/18 05:29:43;;;;;;;11.50;5.33;;;4.80;99.90;;;;;;4971012;28;20456;-68
2024/01/18 05:32:11;;;;;;;12.00;6.27;;;4.80;99.90;;;;;;4970898;28;20524;-68
2024/01/18 05:34:40;;;;;;;13.23;6.00;;;4.70;99.90;;;;;;4970829;28;20513;-67
2024/01/18 05:37:09;;;;;;;12.50;6.20;;;4.70;99.90;;;;;;4971051;28;20478;-68
2024/01/18 05:39:37;;;;;;;11.57;6.40;;;4.70;99.90;;;;;;4970637;28;20964;-67
2024/01/18 05:42:06;;;;;;;13.03;6.73;;;4.70;99.90;;;;;;4969330;28;20440;-68
2024/01/18 05:44:34;;;;;;;15.13;7.50;;;4.60;99.90;;;;;;4970526;28;20499;-66
2024/01/18 05:47:02;;;;;;;13.03;6.50;;;4.40;99.90;;;;;;4970768;28;20459;-69
2024/01/18 05:49:30;;;;;;;14.20;6.10;;;4.30;99.90;;;;;;4970730;28;20455;-70
2024/01/18 05:51:58;;;;;;;14.30;6.70;;;4.30;99.90;;;;;;4970434;28;21013;-70
2024/01/18 05:54:27;;;;;;;12.67;5.97;;;4.20;99.90;;;;;;4970863;28;20936;-69
2024/01/18 05:56:55;;;;;;;31.80;13.90;;;4.10;99.90;;;;;;4970500;28;20482;-67
2024/01/18 05:59:23;;;;;;;12.20;5.40;;;4.00;99.90;;;;;;4970464;28;20462;-68
2024/01/18 06:01:51;;;;;;;11.63;4.63;;;3.90;99.90;;;;;;4970380;28;20452;-68
2024/01/18 06:04:19;;;;;;;10.40;4.17;;;3.80;99.90;;;;;;4970147;28;21019;-67
2024/01/18 06:06:47;;;;;;;9.63;3.53;;;3.60;99.90;;;;;;4970325;28;21251;-68
2024/01/18 06:09:16;;;;;;;9.10;3.53;;;3.50;99.90;;;;;;4970455;28;20452;-68
2024/01/18 06:11:46;;;;;;;8.60;3.03;;;3.30;99.90;;;;;;4969814;28;20239;-68
2024/01/18 06:14:15;;;;;;;8.87;3.43;;;3.20;99.90;;;;;;4970133;28;20961;-68
2024/01/18 06:16:43;;;;;;;8.70;3.07;;;3.20;99.90;;;;;;4969909;28;20493;-67
2024/01/18 06:19:11;;;;;;;9.83;3.80;;;3.20;99.90;;;;;;4969655;28;20707;-68
2024/01/18 06:21:40;;;;;;;8.57;2.87;;;3.20;99.90;;;;;;4969564;28;20624;-71
2024/01/18 06:24:09;;;;;;;7.57;2.50;;;3.20;99.90;;;;;;4967726;28;20455;-70
2024/01/18 06:26:38;;;;;;;12.57;2.90;;;3.20;99.90;;;;;;4962739;28;20482;-69
2024/01/18 06:29:07;;;;;;;7.97;2.50;;;3.20;99.90;;;;;;4962097;28;20455;-70
2024/01/18 06:31:35;;;;;;;8.13;2.23;;;3.30;99.90;;;;;;4963401;28;20542;-68
2024/01/18 06:34:04;;;;;;;8.70;2.97;;;3.30;99.90;;;;;;4969574;28;20444;-68
2024/01/18 06:36:33;;;;;;;8.30;3.00;;;3.20;99.90;;;;;;4985668;28;20475;-68
2024/01/18 06:39:01;;;;;;;7.70;2.30;;;3.10;99.90;;;;;;4968996;28;20454;-69
2024/01/18 06:41:29;;;;;;;8.10;2.53;;;3.10;99.90;;;;;;4973914;28;20452;-69
2024/01/18 06:43:56;;;;;;;8.93;3.10;;;3.10;99.90;;;;;;4961730;28;20573;-69
2024/01/18 06:46:26;;;;;;;8.20;1.67;;;3.10;99.90;;;;;;4981677;28;20454;-70
2024/01/18 06:48:54;;;;;;;8.20;2.70;;;3.10;99.90;;;;;;4975311;28;20443;-69
2024/01/18 06:51:22;;;;;;;8.17;2.30;;;3.10;99.90;;;;;;4969608;28;20483;-70
2024/01/18 06:53:51;;;;;;;9.40;2.70;;;3.10;99.90;;;;;;4982540;28;20989;-70
2024/01/18 06:56:19;;;;;;;7.20;2.03;;;3.10;99.90;;;;;;4982858;28;20467;-69
2024/01/18 06:58:47;;;;;;;7.97;2.37;;;3.10;99.90;;;;;;4967721;28;20520;-69
2024/01/18 07:01:15;;;;;;;8.57;2.10;;;3.10;99.90;;;;;;4968917;28;20448;-69
2024/01/18 07:03:44;;;;;;;9.23;2.43;;;3.20;99.90;;;;;;4969121;28;20451;-69
2024/01/18 07:06:12;;;;;;;9.33;2.83;;;3.10;99.90;;;;;;4969445;28;20567;-69
2024/01/18 07:08:40;;;;;;;7.40;2.33;;;3.00;99.90;;;;;;4969625;28;20447;-69
2024/01/18 07:11:08;;;;;;;7.60;2.23;;;3.10;99.90;;;;;;4969433;28;20531;-68
2024/01/18 07:13:36;;;;;;;8.10;2.40;;;3.10;99.90;;;;;;4979450;28;20479;-69
2024/01/18 07:16:04;;;;;;;7.73;1.90;;;3.10;99.90;;;;;;4967211;28;20835;-68
2024/01/18 07:18:32;;;;;;;7.90;2.30;;;3.00;99.90;;;;;;4965853;28;20455;-69
2024/01/18 07:21:02;;;;;;;8.00;2.23;;;3.00;99.90;;;;;;4964861;28;20463;-68
2024/01/18 07:23:30;;;;;;;8.83;2.30;;;3.00;99.90;;;;;;4971701;28;20469;-68
2024/01/18 07:25:58;;;;;;;9.50;2.80;;;2.90;99.90;;;;;;4987238;28;20462;-68
2024/01/18 07:28:25;;;;;;;9.53;2.77;;;2.80;99.90;;;;;;4985804;28;20982;-69
2024/01/18 07:30:53;;;;;;;10.20;3.47;;;2.70;99.90;;;;;;4977256;28;20949;-68
2024/01/18 07:33:22;;;;;;;8.93;3.25;;;2.70;99.90;;;;;;4968568;28;20494;-69
2024/01/18 07:35:50;;;;;;;8.82;2.55;;;2.60;99.90;;;;;;4968882;28;20226;-70
2024/01/18 07:38:19;;;;;;;9.93;3.50;;;2.70;99.90;;;;;;4968778;28;20602;-69
2024/01/18 07:40:48;;;;;;;9.65;2.80;;;2.60;99.90;;;;;;4979066;28;20215;-70
2024/01/18 07:43:16;;;;;;;10.00;3.70;;;2.60;99.90;;;;;;4983569;28;20622;-69
2024/01/18 07:45:44;;;;;;;9.27;3.00;;;2.50;99.90;;;;;;4975251;28;20238;-68
2024/01/18 07:48:15;;;;;;;8.52;3.10;;;2.50;99.90;;;;;;4971063;28;20228;-69
2024/01/18 07:50:44;;;;;;;8.07;2.60;;;2.60;99.90;;;;;;4975993;28;20210;-70
2024/01/18 07:53:12;;;;;;;9.25;3.40;;;2.60;99.90;;;;;;4992412;28;20226;-68
2024/01/18 07:55:42;;;;;;;11.23;3.47;;;2.60;99.90;;;;;;4985468;28;20646;-68
2024/01/18 07:58:11;;;;;;;11.60;4.20;;;2.70;99.90;;;;;;4976668;28;20446;-67
2024/01/18 08:00:39;;;;;;;9.45;3.35;;;2.70;99.90;;;;;;4992938;28;20938;-68
2024/01/18 08:03:07;;;;;;;10.02;3.38;;;2.80;99.90;;;;;;4982618;28;20633;-68
2024/01/18 08:05:35;;;;;;;9.40;3.00;;;2.80;99.90;;;;;;4975147;28;20234;-69
2024/01/18 08:08:03;;;;;;;12.33;4.00;;;2.80;99.90;;;;;;4975004;28;20948;-69
2024/01/18 08:10:32;;;;;;;10.85;3.80;;;2.80;99.90;;;;;;4973888;28;20470;-67
2024/01/18 08:13:02;;;;;;;12.23;4.70;;;2.70;99.90;;;;;;4984454;28;20703;-69
2024/01/18 08:15:30;;;;;;;9.60;4.03;;;2.70;99.90;;;;;;4992963;28;20226;-68
2024/01/18 08:17:58;;;;;;;12.95;4.40;;;2.60;99.90;;;;;;4974449;28;20245;-68
2024/01/18 08:20:26;;;;;;;10.60;4.75;;;2.60;99.90;;;;;;4973807;28;20589;-68
2024/01/18 08:22:54;;;;;;;11.05;4.20;;;2.50;99.90;;;;;;4974226;28;20210;-66
2024/01/18 08:25:22;;;;;;;13.40;5.13;;;2.40;99.90;;;;;;4973918;28;20233;-68
2024/01/18 08:27:53;;;;;;;10.70;4.10;;;2.40;99.90;;;;;;4974285;28;20215;-68
2024/01/18 08:30:22;;;;;;;11.65;4.95;;;2.30;99.90;;;;;;4973698;28;20742;-68
2024/01/18 08:32:50;;;;;;;11.38;5.25;;;2.20;99.90;;;;;;4973707;28;20231;-69
2024/01/18 08:35:18;;;;;;;10.75;4.35;;;2.30;99.90;;;;;;4973956;28;20285;-68
2024/01/18 08:37:47;;;;;;;11.85;4.88;;;2.30;99.90;;;;;;4973746;28;20253;-69
2024/01/18 08:40:18;;;;;;;12.43;4.57;;;2.30;99.90;;;;;;4973448;28;20221;-67
2024/01/18 08:42:46;;;;;;;10.73;4.25;;;2.30;99.90;;;;;;4939519;28;20627;-68
2024/01/18 08:45:15;;;;;;;10.55;4.50;;;2.20;99.90;;;;;;4974999;28;20320;-68
2024/01/18 08:47:44;;;;;;;10.55;4.10;;;2.20;99.90;;;;;;4974943;28;20216;-69
2024/01/18 08:50:15;;;;;;;9.13;3.75;;;2.10;99.90;;;;;;4974272;28;20210;-68
2024/01/18 08:52:43;;;;;;;10.35;4.05;;;2.10;99.90;;;;;;4974521;28;20230;-69
2024/01/18 08:55:11;;;;;;;12.13;4.80;;;2.10;99.90;;;;;;4973794;28;20316;-68
2024/01/18 08:57:39;;;;;;;10.65;3.95;;;2.10;99.90;;;;;;4971954;28;20293;-68
2024/01/18 09:00:08;;;;;;;9.60;3.72;;;2.10;99.90;;;;;;4971366;28;20216;-68
2024/01/18 09:02:39;;;;;;;10.75;3.65;;;2.10;99.90;;;;;;4971701;28;20219;-70
2024/01/18 09:05:09;;;;;;;10.48;4.18;;;2.10;99.90;;;;;;4971462;28;20778;-69
2024/01/18 09:07:37;;;;;;;10.50;4.30;;;2.10;99.90;;;;;;4971382;28;20676;-70
2024/01/18 09:10:06;;;;;;;10.30;4.45;;;2.10;99.90;;;;;;4970881;28;20213;-68
2024/01/18 09:12:34;;;;;;;11.13;4.25;;;2.10;99.90;;;;;;4971176;28;20694;-69
2024/01/18 09:15:02;;;;;;;10.35;4.28;;;2.00;99.90;;;;;;4971740;28;20268;-67
2024/01/18 09:17:31;;;;;;;10.02;3.90;;;2.00;99.90;;;;;;4971369;28;20240;-68
2024/01/18 09:19:59;;;;;;;11.40;4.10;;;1.90;99.90;;;;;;4970887;28;20787;-68
2024/01/18 09:22:29;;;;;;;10.57;4.40;;;1.90;99.90;;;;;;4971043;28;20213;-67
2024/01/18 09:24:57;;;;;;;9.45;3.65;;;1.90;99.90;;;;;;4971133;28;20214;-68
2024/01/18 09:27:25;;;;;;;10.95;4.13;;;1.90;99.90;;;;;;4971330;28;20245;-68
2024/01/18 09:29:53;;;;;;;9.68;3.80;;;1.90;99.90;;;;;;4970827;28;20216;-67
2024/01/18 09:32:21;;;;;;;10.00;3.78;;;1.90;99.90;;;;;;4970830;28;20256;-68
2024/01/18 09:34:49;;;;;;;9.10;3.38;;;2.00;99.90;;;;;;4970672;28;20726;-70
2024/01/18 09:37:17;;;;;;;10.05;3.28;;;2.10;99.90;;;;;;4970913;28;20690;-69
2024/01/18 09:39:47;;;;;;;8.43;3.00;;;2.10;99.90;;;;;;4970693;28;20211;-69
2024/01/18 09:42:18;;;;;;;10.75;3.47;;;2.00;99.90;;;;;;4970606;28;20212;-67
2024/01/18 09:44:48;;;;;;;9.63;3.35;;;2.00;99.90;;;;;;4970610;28;20291;-68
2024/01/18 09:47:16;;;;;;;10.02;3.47;;;1.90;99.90;;;;;;4970927;28;20217;-68
2024/01/18 09:49:46;;;;;;;8.95;2.80;;;1.90;99.90;;;;;;4970667;28;20215;-68
2024/01/18 09:52:14;;;;;;;8.40;2.92;;;1.90;99.90;;;;;;4970246;28;20204;-68
2024/01/18 09:54:43;;;;;;;8.52;3.00;;;1.90;99.90;;;;;;4970620;28;20232;-68
2024/01/18 09:57:14;;;;;;;8.70;3.00;;;1.90;99.90;;;;;;4970636;28;20232;-68
2024/01/18 09:59:43;;;;;;;8.65;2.45;;;1.90;99.90;;;;;;4970338;28;20245;-68
2024/01/18 10:02:12;;;;;;;8.70;2.33;;;1.80;99.90;;;;;;4970694;28;20236;-67
2024/01/18 10:04:42;;;;;;;8.80;2.80;;;1.80;99.90;;;;;;4970550;28;20570;-69
2024/01/18 10:07:10;;;;;;;9.00;2.80;;;1.80;99.90;;;;;;4969822;28;20223;-68
2024/01/18 10:09:38;;;;;;;8.10;2.40;;;1.70;99.90;;;;;;4978343;28;20629;-69
2024/01/18 10:12:07;;;;;;;8.68;3.25;;;1.70;99.90;;;;;;4970498;28;20842;-68
2024/01/18 10:14:42;;;;;;;9.63;3.30;;;1.70;99.90;;;;;;4986020;28;20682;-67
2024/01/18 10:17:10;;;;;;;9.82;3.80;;;1.60;99.90;;;;;;4989866;28;20626;-67
2024/01/18 10:19:38;;;;;;;8.85;3.50;;;1.60;99.90;;;;;;4973693;28;20220;-67
2024/01/18 10:22:06;;;;;;;9.02;3.17;;;1.60;99.90;;;;;;4970091;28;20212;-67
2024/01/18 10:24:40;;;;;;;9.00;2.70;;;1.60;99.90;;;;;;4973174;28;20197;-68
2024/01/18 10:27:08;;;;;;;9.25;3.83;;;1.60;99.90;;;;;;4971620;28;20613;-70
2024/01/18 10:29:36;;;;;;;8.52;2.72;;;1.60;99.90;;;;;;4971743;28;20214;-68
2024/01/18 10:32:07;;;;;;;8.27;2.35;;;1.60;99.90;;;;;;4969972;28;20290;-70
2024/01/18 10:34:36;;;;;;;7.65;2.13;;;1.60;99.90;;;;;;4970371;28;20223;-68
2024/01/18 10:37:05;;;;;;;8.60;2.90;;;1.60;99.90;;;;;;4970026;28;20304;-67
2024/01/18 10:39:40;;;;;;;8.30;2.20;;;1.50;99.90;;;;;;4969885;28;20617;-67
2024/01/18 10:42:09;;;;;;;9.55;3.20;;;1.50;99.90;;;;;;4968677;28;20203;-67
2024/01/18 10:44:41;;;;;;;8.35;2.90;;;1.40;99.90;;;;;;4970965;28;20215;-67
2024/01/18 10:47:13;;;;;;;8.30;2.55;;;1.50;99.90;;;;;;4965246;28;20217;-67
2024/01/18 10:49:41;;;;;;;10.43;3.38;;;1.50;99.90;;;;;;4980650;28;20216;-67
2024/01/18 10:52:11;;;;;;;8.02;2.22;;;1.50;99.90;;;;;;4969312;28;20226;-70
2024/01/18 10:54:39;;;;;;;8.60;3.08;;;1.50;99.90;;;;;;4980281;28;20222;-68
2024/01/18 10:57:21;;;;;;;9.40;4.13;;;1.40;99.90;;;;;;4984026;28;20204;-67
2024/01/18 10:59:49;;;;;;;9.98;4.20;;;1.40;99.90;;;;;;4969340;28;20240;-67
2024/01/18 11:02:19;;;;;;;9.90;4.47;;;1.40;99.90;;;;;;4969048;28;20203;-67
2024/01/18 11:04:48;;;;;;;11.63;4.28;;;1.30;99.90;;;;;;4969384;28;20211;-67
2024/01/18 11:07:20;;;;;;;10.85;4.35;;;1.30;99.90;;;;;;4969594;28;20768;-68
2024/01/18 11:09:48;;;;;;;11.27;4.25;;;1.30;99.90;;;;;;4969188;28;20215;-68
2024/01/18 11:12:17;;;;;;;11.32;4.28;;;1.30;99.90;;;;;;4969047;28;20212;-67
2024/01/18 11:14:47;;;;;;;10.15;4.00;;;1.30;99.90;;;;;;4968807;28;20224;-67
2024/01/18 11:17:19;;;;;;;9.80;3.45;;;1.20;99.90;;;;;;4968975;28;20214;-67
2024/01/18 11:19:49;;;;;;;10.82;4.00;;;1.20;99.90;;;;;;4967859;28;20720;-68
2024/01/18 11:22:24;;;;;;;11.63;5.40;;;1.20;99.90;;;;;;4968886;28;20212;-68
2024/01/18 11:24:53;;;;;;;12.07;4.63;;;1.10;99.90;;;;;;4969084;28;20797;-68
2024/01/18 11:27:22;;;;;;;9.70;3.92;;;1.10;99.90;;;;;;4968766;28;20285;-67
2024/01/18 11:29:51;;;;;;;10.85;4.20;;;1.00;99.90;;;;;;4968503;28;20674;-67
2024/01/18 11:32:20;;;;;;;10.15;4.32;;;0.90;99.90;;;;;;4968712;28;20231;-67
2024/01/18 11:34:49;;;;;;;10.38;3.53;;;0.80;99.90;;;;;;4968748;28;20286;-67
2024/01/18 11:37:19;;;;;;;9.20;3.55;;;0.80;99.90;;;;;;4969064;28;20211;-68
2024/01/18 11:39:58;;;;;;;11.15;4.35;;;0.80;99.90;;;;;;4968917;28;20215;-67
2024/01/18 11:42:28;;;;;;;11.32;4.47;;;0.80;99.90;;;;;;4968975;28;20242;-67
2024/01/18 11:44:58;;;;;;;12.00;5.25;;;0.80;99.90;;;;;;4969401;28;20286;-66
2024/01/18 11:47:29;;;;;;;11.73;5.30;;;0.70;99.90;;;;;;4969067;28;20239;-66
2024/01/18 11:49:58;;;;;;;10.73;4.95;;;0.70;99.90;;;;;;4968624;28;20219;-68
2024/01/18 11:52:28;;;;;;;11.82;4.93;;;0.70;99.90;;;;;;4968684;28;20286;-68
2024/01/18 11:54:57;;;;;;;11.98;5.45;;;0.70;99.90;;;;;;4970365;28;20310;-66
2024/01/18 11:57:25;;;;;;;10.40;4.28;;;0.70;99.90;;;;;;4985351;28;20568;-66
2024/01/18 11:59:54;;;;;;;11.43;5.00;;;0.70;99.90;;;;;;4981957;28;20214;-66
2024/01/18 12:02:22;;;;;;;11.95;5.13;;;0.70;99.90;;;;;;4982724;28;20208;-67
2024/01/18 12:04:52;;;;;;;12.23;5.32;;;0.70;99.90;;;;;;4967563;28;20251;-68
2024/01/18 12:07:21;;;;;;;11.23;4.80;;;0.60;99.90;;;;;;4987538;28;20253;-66
2024/01/18 12:09:49;;;;;;;13.18;5.50;;;0.70;99.90;;;;;;4973342;28;20203;-68
2024/01/18 12:12:18;;;;;;;12.52;5.32;;;0.70;99.90;;;;;;4987622;28;20421;-69
2024/01/18 12:14:47;;;;;;;11.50;4.35;;;0.70;99.90;;;;;;4968514;28;20223;-68
2024/01/18 12:17:16;;;;;;;11.95;5.22;;;0.70;99.90;;;;;;4968220;28;20200;-68
2024/01/18 12:19:45;;;;;;;10.70;4.55;;;0.70;99.90;;;;;;4967633;28;20869;-68
2024/01/18 12:22:16;;;;;;;12.80;5.25;;;0.80;99.90;;;;;;4967932;28;20208;-68
2024/01/18 12:24:45;;;;;;;14.15;6.32;;;0.80;99.90;;;;;;4967899;28;20827;-69
2024/01/18 12:27:14;;;;;;;11.80;5.22;;;0.80;99.90;;;;;;4964652;28;20196;-70
2024/01/18 12:29:44;;;;;;;13.20;6.43;;;0.70;99.90;;;;;;4977854;28;20214;-68
2024/01/18 12:32:16;;;;;;;13.00;6.00;;;0.60;99.90;;;;;;4986374;28;20206;-68
2024/01/18 12:34:45;;;;;;;13.00;6.15;;;0.60;99.90;;;;;;4980116;28;20570;-68
2024/01/18 12:37:15;;;;;;;12.88;6.00;;;0.50;99.90;;;;;;4978347;28;20562;-68
2024/01/18 12:39:44;;;;;;;14.02;6.53;;;0.50;99.90;;;;;;4988769;28;20199;-68
2024/01/18 12:42:12;;;;;;;13.55;6.68;;;0.50;99.90;;;;;;4990624;28;20199;-68
2024/01/18 12:44:41;;;;;;;17.80;6.63;;;0.40;99.90;;;;;;4975709;28;20320;-67
2024/01/18 12:47:10;;;;;;;13.07;5.90;;;0.50;99.90;;;;;;4970282;28;20325;-70
2024/01/18 12:49:39;;;;;;;14.35;6.82;;;0.40;99.90;;;;;;4965172;28;20268;-68
2024/01/18 12:52:08;;;;;;;13.65;6.53;;;0.40;99.90;;;;;;4989983;28;20245;-66
2024/01/18 12:54:37;;;;;;;18.02;8.40;;;0.40;99.90;;;;;;4975490;28;20257;-67
2024/01/18 12:57:05;;;;;;;13.82;6.47;;;0.40;99.90;;;;;;4970691;28;20339;-67
2024/01/18 12:59:34;;;;;;;15.05;7.55;;;0.30;99.90;;;;;;4970894;28;20227;-68